sensor_id;sensor_type;location;lat;lon;timestamp;P1;durP1;ratioP1;P2;durP2;ratioP2
7359;SDS011;3720;48.274;7.796;2024-01-15T00:00:01;58.93;;;23.23;;
7359;SDS011;3720;48.274;7.796;2024-01-15T00:02:36;58.23;;;23.40;;
7359;SDS011;3720;48.274;7.796;2024-01-15T00:05:08;61.17;;;23.97;;
7359;SDS011;3720;48.274;7.796;2024-01-15T00:07:39;61.73;;;24.60;;
7359;SDS011;3720;48.274;7.796;2024-01-15T00:10:11;60.03;;;24.23;;
7359;SDS011;3720;48.274;7.796;2024-01-15T00:12:43;58.80;;;23.37;;
7359;SDS011;3720;48.274;7.796;2024-01-15T00:15:15;56.53;;;22.90;;
7359;SDS011;3720;48.274;7.796;2024-01-15T00:17:48;60.63;;;24.17;;
7359;SDS011;3720;48.274;7.796;2024-01-15T00:20:20;60.20;;;23.30;;
7359;SDS011;3720;48.274;7.796;2024-01-15T00:22:52;62.70;;;24.80;;
7359;SDS011;3720;48.274;7.796;2024-01-15T00:25:24;57.60;;;22.83;;
7359;SDS011;3720;48.274;7.796;2024-01-15T00:27:56;64.43;;;24.97;;
7359;SDS011;3720;48.274;7.796;2024-01-15T00:30:27;62.23;;;24.27;;
7359;SDS011;3720;48.274;7.796;2024-01-15T00:33:01;65.10;;;25.27;;
7359;SDS011;3720;48.274;7.796;2024-01-15T00:35:33;59.23;;;24.43;;
7359;SDS011;3720;48.274;7.796;2024-01-15T00:38:04;65.47;;;26.27;;
7359;SDS011;3720;48.274;7.796;2024-01-15T00:40:36;63.87;;;25.20;;
7359;SDS011;3720;48.274;7.796;2024-01-15T00:43:08;64.80;;;26.67;;
7359;SDS011;3720;48.274;7.796;2024-01-15T00:45:40;63.90;;;25.97;;
7359;SDS011;3720;48.274;7.796;2024-01-15T00:48:13;65.33;;;26.17;;
7359;SDS011;3720;48.274;7.796;2024-01-15T00:50:45;65.73;;;25.57;;
7359;SDS011;3720;48.274;7.796;2024-01-15T00:53:17;62.83;;;24.67;;
7359;SDS011;3720;48.274;7.796;2024-01-15T00:55:50;65.20;;;25.13;;
7359;SDS011;3720;48.274;7.796;2024-01-15T00:58:21;61.87;;;23.67;;
7359;SDS011;3720;48.274;7.796;2024-01-15T01:00:53;57.90;;;24.43;;
7359;SDS011;3720;48.274;7.796;2024-01-15T01:03:26;57.60;;;22.70;;
7359;SDS011;3720;48.274;7.796;2024-01-15T01:05:58;55.17;;;22.57;;
7359;SDS011;3720;48.274;7.796;2024-01-15T01:08:30;61.03;;;24.17;;
7359;SDS011;3720;48.274;7.796;2024-01-15T01:11:02;57.53;;;23.93;;
7359;SDS011;3720;48.274;7.796;2024-01-15T01:13:34;59.63;;;24.55;;
7359;SDS011;3720;48.274;7.796;2024-01-15T01:16:06;62.77;;;24.97;;
7359;SDS011;3720;48.274;7.796;2024-01-15T01:18:39;58.50;;;23.93;;
7359;SDS011;3720;48.274;7.796;2024-01-15T01:21:11;59.20;;;25.40;;
7359;SDS011;3720;48.274;7.796;2024-01-15T01:23:43;64.57;;;25.07;;
7359;SDS011;3720;48.274;7.796;2024-01-15T01:26:15;63.87;;;25.80;;
7359;SDS011;3720;48.274;7.796;2024-01-15T01:28:47;63.00;;;25.60;;
7359;SDS011;3720;48.274;7.796;2024-01-15T01:31:19;65.67;;;26.67;;
7359;SDS011;3720;48.274;7.796;2024-01-15T01:33:52;69.37;;;25.43;;
7359;SDS011;3720;48.274;7.796;2024-01-15T01:36:24;64.43;;;25.67;;
7359;SDS011;3720;48.274;7.796;2024-01-15T01:38:56;64.30;;;24.40;;
7359;SDS011;3720;48.274;7.796;2024-01-15T01:41:28;61.63;;;25.77;;
7359;SDS011;3720;48.274;7.796;2024-01-15T01:44:00;64.73;;;26.10;;
7359;SDS011;3720;48.274;7.796;2024-01-15T01:46:32;67.47;;;26.13;;
7359;SDS011;3720;48.274;7.796;2024-01-15T01:49:05;62.47;;;25.50;;
7359;SDS011;3720;48.274;7.796;2024-01-15T01:51:38;59.90;;;23.90;;
7359;SDS011;3720;48.274;7.796;2024-01-15T01:54:10;64.80;;;24.87;;
7359;SDS011;3720;48.274;7.796;2024-01-15T01:56:43;58.93;;;24.37;;
7359;SDS011;3720;48.274;7.796;2024-01-15T01:59:17;65.40;;;26.23;;
7359;SDS011;3720;48.274;7.796;2024-01-15T02:01:49;69.07;;;26.87;;
7359;SDS011;3720;48.274;7.796;2024-01-15T02:04:23;68.40;;;26.07;;
7359;SDS011;3720;48.274;7.796;2024-01-15T02:06:56;68.93;;;26.20;;
7359;SDS011;3720;48.274;7.796;2024-01-15T02:09:28;69.27;;;26.77;;
7359;SDS011;3720;48.274;7.796;2024-01-15T02:11:59;68.90;;;25.67;;
7359;SDS011;3720;48.274;7.796;2024-01-15T02:14:32;67.00;;;26.50;;
7359;SDS011;3720;48.274;7.796;2024-01-15T02:17:04;67.90;;;27.37;;
7359;SDS011;3720;48.274;7.796;2024-01-15T02:19:37;69.83;;;27.07;;
7359;SDS011;3720;48.274;7.796;2024-01-15T02:22:10;71.67;;;27.27;;
7359;SDS011;3720;48.274;7.796;2024-01-15T02:24:44;71.70;;;28.53;;
7359;SDS011;3720;48.274;7.796;2024-01-15T02:27:15;74.93;;;28.83;;
7359;SDS011;3720;48.274;7.796;2024-01-15T02:29:49;74.67;;;28.23;;
7359;SDS011;3720;48.274;7.796;2024-01-15T02:32:22;73.93;;;28.50;;
7359;SDS011;3720;48.274;7.796;2024-01-15T02:34:53;73.23;;;28.83;;
7359;SDS011;3720;48.274;7.796;2024-01-15T02:37:26;72.23;;;27.43;;
7359;SDS011;3720;48.274;7.796;2024-01-15T02:39:59;75.67;;;28.63;;
7359;SDS011;3720;48.274;7.796;2024-01-15T02:42:31;81.40;;;28.57;;
7359;SDS011;3720;48.274;7.796;2024-01-15T02:45:03;73.43;;;28.03;;
7359;SDS011;3720;48.274;7.796;2024-01-15T02:47:35;76.93;;;29.00;;
7359;SDS011;3720;48.274;7.796;2024-01-15T02:50:07;71.90;;;28.30;;
7359;SDS011;3720;48.274;7.796;2024-01-15T02:52:39;74.47;;;28.90;;
7359;SDS011;3720;48.274;7.796;2024-01-15T02:55:12;74.07;;;29.33;;
7359;SDS011;3720;48.274;7.796;2024-01-15T02:57:44;76.80;;;28.07;;
7359;SDS011;3720;48.274;7.796;2024-01-15T03:00:16;79.93;;;29.47;;
7359;SDS011;3720;48.274;7.796;2024-01-15T03:02:49;76.97;;;28.87;;
7359;SDS011;3720;48.274;7.796;2024-01-15T03:05:22;74.77;;;27.90;;
7359;SDS011;3720;48.274;7.796;2024-01-15T03:07:54;79.97;;;30.03;;
7359;SDS011;3720;48.274;7.796;2024-01-15T03:10:27;75.67;;;29.70;;
7359;SDS011;3720;48.274;7.796;2024-01-15T03:12:59;71.20;;;28.20;;
7359;SDS011;3720;48.274;7.796;2024-01-15T03:15:31;74.57;;;29.20;;
7359;SDS011;3720;48.274;7.796;2024-01-15T03:18:03;80.03;;;29.97;;
7359;SDS011;3720;48.274;7.796;2024-01-15T03:20:35;80.03;;;30.27;;
7359;SDS011;3720;48.274;7.796;2024-01-15T03:23:07;79.13;;;30.37;;
7359;SDS011;3720;48.274;7.796;2024-01-15T03:25:40;81.93;;;30.47;;
7359;SDS011;3720;48.274;7.796;2024-01-15T03:28:12;73.60;;;28.80;;
7359;SDS011;3720;48.274;7.796;2024-01-15T03:30:43;80.37;;;30.00;;
7359;SDS011;3720;48.274;7.796;2024-01-15T03:33:15;79.67;;;29.87;;
7359;SDS011;3720;48.274;7.796;2024-01-15T03:35:47;79.17;;;30.63;;
7359;SDS011;3720;48.274;7.796;2024-01-15T03:38:19;80.67;;;29.13;;
7359;SDS011;3720;48.274;7.796;2024-01-15T03:40:52;72.80;;;29.53;;
7359;SDS011;3720;48.274;7.796;2024-01-15T03:43:24;78.03;;;29.83;;
7359;SDS011;3720;48.274;7.796;2024-01-15T03:45:57;81.00;;;29.90;;
7359;SDS011;3720;48.274;7.796;2024-01-15T03:48:29;82.60;;;30.67;;
7359;SDS011;3720;48.274;7.796;2024-01-15T03:51:00;78.20;;;29.73;;
7359;SDS011;3720;48.274;7.796;2024-01-15T03:53:32;75.17;;;30.40;;
7359;SDS011;3720;48.274;7.796;2024-01-15T03:56:06;73.53;;;28.80;;
7359;SDS011;3720;48.274;7.796;2024-01-15T03:58:38;77.33;;;30.23;;
7359;SDS011;3720;48.274;7.796;2024-01-15T04:01:09;81.77;;;30.63;;
7359;SDS011;3720;48.274;7.796;2024-01-15T04:03:42;77.73;;;29.63;;
7359;SDS011;3720;48.274;7.796;2024-01-15T04:06:13;76.33;;;29.47;;
7359;SDS011;3720;48.274;7.796;2024-01-15T04:08:45;71.63;;;29.92;;
7359;SDS011;3720;48.274;7.796;2024-01-15T04:11:18;74.97;;;29.63;;
7359;SDS011;3720;48.274;7.796;2024-01-15T04:13:51;77.07;;;29.50;;
7359;SDS011;3720;48.274;7.796;2024-01-15T04:16:22;76.40;;;29.53;;
7359;SDS011;3720;48.274;7.796;2024-01-15T04:18:54;73.03;;;28.60;;
7359;SDS011;3720;48.274;7.796;2024-01-15T04:21:26;73.80;;;28.73;;
7359;SDS011;3720;48.274;7.796;2024-01-15T04:23:58;72.00;;;28.63;;
7359;SDS011;3720;48.274;7.796;2024-01-15T04:26:31;81.67;;;30.90;;
7359;SDS011;3720;48.274;7.796;2024-01-15T04:29:03;71.53;;;29.27;;
7359;SDS011;3720;48.274;7.796;2024-01-15T04:31:35;78.00;;;29.70;;
7359;SDS011;3720;48.274;7.796;2024-01-15T04:34:06;86.37;;;30.83;;
7359;SDS011;3720;48.274;7.796;2024-01-15T04:36:39;76.17;;;28.73;;
7359;SDS011;3720;48.274;7.796;2024-01-15T04:39:11;69.07;;;26.87;;
7359;SDS011;3720;48.274;7.796;2024-01-15T04:41:44;65.28;;;26.42;;
7359;SDS011;3720;48.274;7.796;2024-01-15T04:44:16;70.57;;;26.73;;
7359;SDS011;3720;48.274;7.796;2024-01-15T04:46:48;68.43;;;26.10;;
7359;SDS011;3720;48.274;7.796;2024-01-15T04:49:20;69.53;;;26.47;;
7359;SDS011;3720;48.274;7.796;2024-01-15T04:51:51;67.80;;;25.38;;
7359;SDS011;3720;48.274;7.796;2024-01-15T04:54:23;66.67;;;25.57;;
7359;SDS011;3720;48.274;7.796;2024-01-15T04:56:57;65.67;;;24.60;;
7359;SDS011;3720;48.274;7.796;2024-01-15T04:59:28;65.90;;;24.63;;
7359;SDS011;3720;48.274;7.796;2024-01-15T05:02:00;65.55;;;24.85;;
7359;SDS011;3720;48.274;7.796;2024-01-15T05:04:32;64.47;;;22.98;;
7359;SDS011;3720;48.274;7.796;2024-01-15T05:07:04;67.30;;;24.83;;
7359;SDS011;3720;48.274;7.796;2024-01-15T05:09:36;66.97;;;24.15;;
7359;SDS011;3720;48.274;7.796;2024-01-15T05:12:09;63.47;;;22.80;;
7359;SDS011;3720;48.274;7.796;2024-01-15T05:14:41;60.40;;;22.67;;
7359;SDS011;3720;48.274;7.796;2024-01-15T05:17:13;57.80;;;21.58;;
7359;SDS011;3720;48.274;7.796;2024-01-15T05:19:45;57.17;;;21.13;;
7359;SDS011;3720;48.274;7.796;2024-01-15T05:22:16;54.17;;;21.30;;
7359;SDS011;3720;48.274;7.796;2024-01-15T05:24:48;54.58;;;20.85;;
7359;SDS011;3720;48.274;7.796;2024-01-15T05:27:21;57.28;;;22.40;;
7359;SDS011;3720;48.274;7.796;2024-01-15T05:29:53;58.45;;;22.20;;
7359;SDS011;3720;48.274;7.796;2024-01-15T05:32:25;40.42;;;16.08;;
7359;SDS011;3720;48.274;7.796;2024-01-15T05:34:57;42.83;;;16.98;;
7359;SDS011;3720;48.274;7.796;2024-01-15T05:37:28;58.63;;;21.92;;
7359;SDS011;3720;48.274;7.796;2024-01-15T05:40:00;60.05;;;22.55;;
7359;SDS011;3720;48.274;7.796;2024-01-15T05:42:36;60.58;;;22.70;;
7359;SDS011;3720;48.274;7.796;2024-01-15T05:45:08;56.97;;;21.75;;
7359;SDS011;3720;48.274;7.796;2024-01-15T05:47:40;48.17;;;18.45;;
7359;SDS011;3720;48.274;7.796;2024-01-15T05:50:12;49.10;;;19.33;;
7359;SDS011;3720;48.274;7.796;2024-01-15T05:52:43;49.30;;;19.48;;
7359;SDS011;3720;48.274;7.796;2024-01-15T05:55:15;50.10;;;20.13;;
7359;SDS011;3720;48.274;7.796;2024-01-15T05:57:49;65.82;;;22.55;;
7359;SDS011;3720;48.274;7.796;2024-01-15T06:00:21;58.33;;;22.38;;
7359;SDS011;3720;48.274;7.796;2024-01-15T06:02:53;59.85;;;22.25;;
7359;SDS011;3720;48.274;7.796;2024-01-15T06:05:25;56.65;;;21.58;;
7359;SDS011;3720;48.274;7.796;2024-01-15T06:07:57;55.83;;;21.92;;
7359;SDS011;3720;48.274;7.796;2024-01-15T06:10:29;63.80;;;23.95;;
7359;SDS011;3720;48.274;7.796;2024-01-15T06:13:02;64.70;;;23.10;;
7359;SDS011;3720;48.274;7.796;2024-01-15T06:15:34;61.97;;;21.70;;
7359;SDS011;3720;48.274;7.796;2024-01-15T06:18:06;61.35;;;22.63;;
7359;SDS011;3720;48.274;7.796;2024-01-15T06:20:38;64.20;;;22.93;;
7359;SDS011;3720;48.274;7.796;2024-01-15T06:23:10;62.93;;;23.20;;
7359;SDS011;3720;48.274;7.796;2024-01-15T06:25:41;62.00;;;23.73;;
7359;SDS011;3720;48.274;7.796;2024-01-15T06:28:15;63.58;;;22.75;;
7359;SDS011;3720;48.274;7.796;2024-01-15T06:30:46;63.30;;;23.85;;
7359;SDS011;3720;48.274;7.796;2024-01-15T06:33:18;60.17;;;22.52;;
7359;SDS011;3720;48.274;7.796;2024-01-15T06:35:50;63.42;;;23.60;;
7359;SDS011;3720;48.274;7.796;2024-01-15T06:38:22;64.15;;;23.98;;
7359;SDS011;3720;48.274;7.796;2024-01-15T06:40:55;63.58;;;23.88;;
7359;SDS011;3720;48.274;7.796;2024-01-15T06:43:28;73.10;;;24.83;;
7359;SDS011;3720;48.274;7.796;2024-01-15T06:46:00;68.95;;;25.13;;
7359;SDS011;3720;48.274;7.796;2024-01-15T06:48:32;68.72;;;25.25;;
7359;SDS011;3720;48.274;7.796;2024-01-15T06:51:04;67.10;;;24.88;;
7359;SDS011;3720;48.274;7.796;2024-01-15T06:53:35;68.60;;;25.13;;
7359;SDS011;3720;48.274;7.796;2024-01-15T06:56:07;69.10;;;25.73;;
7359;SDS011;3720;48.274;7.796;2024-01-15T06:58:41;65.97;;;25.75;;
7359;SDS011;3720;48.274;7.796;2024-01-15T07:01:12;72.13;;;26.17;;
7359;SDS011;3720;48.274;7.796;2024-01-15T07:03:44;74.63;;;25.73;;
7359;SDS011;3720;48.274;7.796;2024-01-15T07:06:16;72.00;;;26.38;;
7359;SDS011;3720;48.274;7.796;2024-01-15T07:08:48;73.43;;;25.88;;
7359;SDS011;3720;48.274;7.796;2024-01-15T07:11:21;66.55;;;24.73;;
7359;SDS011;3720;48.274;7.796;2024-01-15T07:13:54;69.57;;;25.90;;
7359;SDS011;3720;48.274;7.796;2024-01-15T07:16:26;70.03;;;25.40;;
7359;SDS011;3720;48.274;7.796;2024-01-15T07:18:57;65.57;;;24.77;;
7359;SDS011;3720;48.274;7.796;2024-01-15T07:21:29;66.78;;;25.05;;
7359;SDS011;3720;48.274;7.796;2024-01-15T07:24:01;67.88;;;24.30;;
7359;SDS011;3720;48.274;7.796;2024-01-15T07:26:33;66.15;;;24.42;;
7359;SDS011;3720;48.274;7.796;2024-01-15T07:29:06;65.57;;;24.42;;
7359;SDS011;3720;48.274;7.796;2024-01-15T07:31:38;68.63;;;24.95;;
7359;SDS011;3720;48.274;7.796;2024-01-15T07:34:10;63.65;;;23.30;;
7359;SDS011;3720;48.274;7.796;2024-01-15T07:36:42;70.18;;;25.15;;
7359;SDS011;3720;48.274;7.796;2024-01-15T07:39:14;65.33;;;24.53;;
7359;SDS011;3720;48.274;7.796;2024-01-15T07:41:46;62.08;;;23.33;;
7359;SDS011;3720;48.274;7.796;2024-01-15T07:44:19;64.85;;;25.17;;
7359;SDS011;3720;48.274;7.796;2024-01-15T07:46:51;65.88;;;23.83;;
7359;SDS011;3720;48.274;7.796;2024-01-15T07:49:23;60.05;;;22.73;;
7359;SDS011;3720;48.274;7.796;2024-01-15T07:51:55;61.20;;;23.13;;
7359;SDS011;3720;48.274;7.796;2024-01-15T07:54:27;64.50;;;23.92;;
7359;SDS011;3720;48.274;7.796;2024-01-15T07:56:59;59.05;;;23.17;;
7359;SDS011;3720;48.274;7.796;2024-01-15T07:59:34;58.38;;;22.15;;
7359;SDS011;3720;48.274;7.796;2024-01-15T08:02:06;65.10;;;23.65;;
7359;SDS011;3720;48.274;7.796;2024-01-15T08:04:38;60.92;;;23.67;;
7359;SDS011;3720;48.274;7.796;2024-01-15T08:07:10;57.85;;;22.70;;
7359;SDS011;3720;48.274;7.796;2024-01-15T08:09:43;53.83;;;22.23;;
7359;SDS011;3720;48.274;7.796;2024-01-15T08:12:16;55.53;;;21.70;;
7359;SDS011;3720;48.274;7.796;2024-01-15T08:14:49;56.10;;;20.88;;
7359;SDS011;3720;48.274;7.796;2024-01-15T08:17:21;51.90;;;20.42;;
7359;SDS011;3720;48.274;7.796;2024-01-15T08:19:54;54.03;;;21.15;;
7359;SDS011;3720;48.274;7.796;2024-01-15T08:22:26;53.97;;;20.05;;
7359;SDS011;3720;48.274;7.796;2024-01-15T08:24:58;52.00;;;20.45;;
7359;SDS011;3720;48.274;7.796;2024-01-15T08:27:30;52.42;;;20.35;;
7359;SDS011;3720;48.274;7.796;2024-01-15T08:30:04;53.75;;;20.33;;
7359;SDS011;3720;48.274;7.796;2024-01-15T08:32:37;53.95;;;19.90;;
7359;SDS011;3720;48.274;7.796;2024-01-15T08:35:12;51.17;;;19.35;;
7359;SDS011;3720;48.274;7.796;2024-01-15T08:37:44;48.45;;;19.40;;
7359;SDS011;3720;48.274;7.796;2024-01-15T08:40:16;52.00;;;20.08;;
7359;SDS011;3720;48.274;7.796;2024-01-15T08:42:48;48.40;;;19.10;;
7359;SDS011;3720;48.274;7.796;2024-01-15T08:45:21;48.38;;;19.02;;
7359;SDS011;3720;48.274;7.796;2024-01-15T08:47:53;46.35;;;18.52;;
7359;SDS011;3720;48.274;7.796;2024-01-15T08:50:25;46.20;;;18.02;;
7359;SDS011;3720;48.274;7.796;2024-01-15T08:52:57;48.20;;;18.17;;
7359;SDS011;3720;48.274;7.796;2024-01-15T08:55:28;44.17;;;17.48;;
7359;SDS011;3720;48.274;7.796;2024-01-15T08:58:00;46.55;;;17.55;;
7359;SDS011;3720;48.274;7.796;2024-01-15T09:00:34;45.95;;;18.25;;
7359;SDS011;3720;48.274;7.796;2024-01-15T09:03:06;43.85;;;17.23;;
7359;SDS011;3720;48.274;7.796;2024-01-15T09:05:39;44.38;;;17.45;;
7359;SDS011;3720;48.274;7.796;2024-01-15T09:08:11;42.38;;;17.25;;
7359;SDS011;3720;48.274;7.796;2024-01-15T09:10:43;41.67;;;16.38;;
7359;SDS011;3720;48.274;7.796;2024-01-15T09:13:15;39.78;;;16.13;;
7359;SDS011;3720;48.274;7.796;2024-01-15T09:15:49;44.88;;;16.85;;
7359;SDS011;3720;48.274;7.796;2024-01-15T09:18:21;39.70;;;16.73;;
7359;SDS011;3720;48.274;7.796;2024-01-15T09:20:53;39.40;;;16.15;;
7359;SDS011;3720;48.274;7.796;2024-01-15T09:23:24;37.10;;;15.52;;
7359;SDS011;3720;48.274;7.796;2024-01-15T09:25:56;36.83;;;15.32;;
7359;SDS011;3720;48.274;7.796;2024-01-15T09:28:28;36.90;;;15.57;;
7359;SDS011;3720;48.274;7.796;2024-01-15T09:31:01;37.80;;;16.42;;
7359;SDS011;3720;48.274;7.796;2024-01-15T09:33:33;43.67;;;16.92;;
7359;SDS011;3720;48.274;7.796;2024-01-15T09:36:05;40.85;;;16.65;;
7359;SDS011;3720;48.274;7.796;2024-01-15T09:38:37;37.50;;;16.00;;
7359;SDS011;3720;48.274;7.796;2024-01-15T09:41:11;39.28;;;16.30;;
7359;SDS011;3720;48.274;7.796;2024-01-15T09:43:43;40.25;;;16.08;;
7359;SDS011;3720;48.274;7.796;2024-01-15T09:46:17;39.58;;;17.25;;
7359;SDS011;3720;48.274;7.796;2024-01-15T09:48:49;40.05;;;16.60;;
7359;SDS011;3720;48.274;7.796;2024-01-15T09:51:20;37.90;;;16.58;;
7359;SDS011;3720;48.274;7.796;2024-01-15T09:53:52;39.20;;;16.30;;
7359;SDS011;3720;48.274;7.796;2024-01-15T09:56:26;37.25;;;16.10;;
7359;SDS011;3720;48.274;7.796;2024-01-15T09:58:58;35.85;;;15.13;;
7359;SDS011;3720;48.274;7.796;2024-01-15T10:01:33;33.72;;;13.88;;
7359;SDS011;3720;48.274;7.796;2024-01-15T10:04:07;26.42;;;12.23;;
7359;SDS011;3720;48.274;7.796;2024-01-15T10:06:39;29.08;;;12.73;;
7359;SDS011;3720;48.274;7.796;2024-01-15T10:11:48;27.13;;;11.70;;
7359;SDS011;3720;48.274;7.796;2024-01-15T10:14:20;26.92;;;12.07;;
7359;SDS011;3720;48.274;7.796;2024-01-15T10:16:53;27.88;;;12.00;;
7359;SDS011;3720;48.274;7.796;2024-01-15T10:19:25;23.77;;;11.30;;
7359;SDS011;3720;48.274;7.796;2024-01-15T10:21:57;25.95;;;11.10;;
7359;SDS011;3720;48.274;7.796;2024-01-15T10:24:29;25.92;;;11.88;;
7359;SDS011;3720;48.274;7.796;2024-01-15T10:27:07;22.45;;;10.48;;
7359;SDS011;3720;48.274;7.796;2024-01-15T10:29:40;23.67;;;11.15;;
7359;SDS011;3720;48.274;7.796;2024-01-15T10:32:14;25.13;;;10.70;;
7359;SDS011;3720;48.274;7.796;2024-01-15T10:34:46;22.45;;;10.63;;
7359;SDS011;3720;48.274;7.796;2024-01-15T10:37:18;20.23;;;9.57;;
7359;SDS011;3720;48.274;7.796;2024-01-15T10:39:50;23.35;;;10.55;;
7359;SDS011;3720;48.274;7.796;2024-01-15T10:42:22;20.92;;;9.77;;
7359;SDS011;3720;48.274;7.796;2024-01-15T10:44:54;21.33;;;10.02;;
7359;SDS011;3720;48.274;7.796;2024-01-15T10:47:28;20.63;;;9.13;;
7359;SDS011;3720;48.274;7.796;2024-01-15T10:50:00;24.90;;;10.85;;
7359;SDS011;3720;48.274;7.796;2024-01-15T10:52:33;23.20;;;10.65;;
7359;SDS011;3720;48.274;7.796;2024-01-15T10:55:06;25.33;;;11.23;;
7359;SDS011;3720;48.274;7.796;2024-01-15T10:57:40;21.38;;;10.40;;
7359;SDS011;3720;48.274;7.796;2024-01-15T11:00:12;24.58;;;10.30;;
7359;SDS011;3720;48.274;7.796;2024-01-15T11:02:46;22.17;;;10.57;;
7359;SDS011;3720;48.274;7.796;2024-01-15T11:05:18;22.83;;;10.13;;
7359;SDS011;3720;48.274;7.796;2024-01-15T11:07:55;21.02;;;11.18;;
7359;SDS011;3720;48.274;7.796;2024-01-15T11:10:40;23.30;;;10.68;;
7359;SDS011;3720;48.274;7.796;2024-01-15T11:13:19;26.42;;;11.15;;
7359;SDS011;3720;48.274;7.796;2024-01-15T11:15:56;23.90;;;11.13;;
7359;SDS011;3720;48.274;7.796;2024-01-15T11:18:35;25.92;;;11.30;;
7359;SDS011;3720;48.274;7.796;2024-01-15T11:21:19;23.05;;;11.00;;
7359;SDS011;3720;48.274;7.796;2024-01-15T11:23:54;25.48;;;11.55;;
7359;SDS011;3720;48.274;7.796;2024-01-15T11:26:35;24.45;;;11.43;;
7359;SDS011;3720;48.274;7.796;2024-01-15T11:29:09;25.92;;;11.80;;
7359;SDS011;3720;48.274;7.796;2024-01-15T11:32:00;23.30;;;10.50;;
7359;SDS011;3720;48.274;7.796;2024-01-15T11:34:53;24.65;;;11.18;;
7359;SDS011;3720;48.274;7.796;2024-01-15T11:37:28;23.88;;;11.68;;
7359;SDS011;3720;48.274;7.796;2024-01-15T11:40:01;23.75;;;10.70;;
7359;SDS011;3720;48.274;7.796;2024-01-15T11:42:33;22.30;;;10.27;;
7359;SDS011;3720;48.274;7.796;2024-01-15T11:45:06;21.40;;;9.18;;
7359;SDS011;3720;48.274;7.796;2024-01-15T11:47:49;13.38;;;6.60;;
7359;SDS011;3720;48.274;7.796;2024-01-15T11:50:41;17.52;;;8.07;;
7359;SDS011;3720;48.274;7.796;2024-01-15T11:53:15;15.60;;;7.47;;
7359;SDS011;3720;48.274;7.796;2024-01-15T11:55:49;13.52;;;6.45;;
7359;SDS011;3720;48.274;7.796;2024-01-15T11:58:22;16.25;;;6.65;;
7359;SDS011;3720;48.274;7.796;2024-01-15T12:00:55;12.82;;;6.40;;
7359;SDS011;3720;48.274;7.796;2024-01-15T12:03:27;12.90;;;6.20;;
7359;SDS011;3720;48.274;7.796;2024-01-15T12:06:00;14.95;;;7.53;;
7359;SDS011;3720;48.274;7.796;2024-01-15T12:08:32;16.13;;;8.25;;
7359;SDS011;3720;48.274;7.796;2024-01-15T12:11:05;18.67;;;9.27;;
7359;SDS011;3720;48.274;7.796;2024-01-15T12:13:42;15.68;;;7.90;;
7359;SDS011;3720;48.274;7.796;2024-01-15T12:16:13;19.90;;;8.98;;
7359;SDS011;3720;48.274;7.796;2024-01-15T12:18:45;16.85;;;7.90;;
7359;SDS011;3720;48.274;7.796;2024-01-15T12:21:19;15.82;;;7.18;;
7359;SDS011;3720;48.274;7.796;2024-01-15T12:23:51;13.70;;;7.30;;
7359;SDS011;3720;48.274;7.796;2024-01-15T12:26:24;19.58;;;7.97;;
7359;SDS011;3720;48.274;7.796;2024-01-15T12:28:56;14.48;;;7.35;;
7359;SDS011;3720;48.274;7.796;2024-01-15T12:31:29;14.60;;;6.90;;
7359;SDS011;3720;48.274;7.796;2024-01-15T12:34:01;19.40;;;7.10;;
7359;SDS011;3720;48.274;7.796;2024-01-15T12:36:35;14.15;;;7.05;;
7359;SDS011;3720;48.274;7.796;2024-01-15T12:39:10;13.50;;;6.07;;
7359;SDS011;3720;48.274;7.796;2024-01-15T12:41:43;10.52;;;5.57;;
7359;SDS011;3720;48.274;7.796;2024-01-15T12:44:15;12.73;;;5.30;;
7359;SDS011;3720;48.274;7.796;2024-01-15T12:46:47;8.23;;;4.60;;
7359;SDS011;3720;48.274;7.796;2024-01-15T12:49:19;8.23;;;4.13;;
7359;SDS011;3720;48.274;7.796;2024-01-15T12:51:54;9.25;;;4.47;;
7359;SDS011;3720;48.274;7.796;2024-01-15T12:54:27;10.82;;;4.32;;
7359;SDS011;3720;48.274;7.796;2024-01-15T12:56:59;8.60;;;4.07;;
7359;SDS011;3720;48.274;7.796;2024-01-15T12:59:31;10.35;;;4.25;;
7359;SDS011;3720;48.274;7.796;2024-01-15T13:02:04;7.97;;;4.10;;
7359;SDS011;3720;48.274;7.796;2024-01-15T13:04:37;6.97;;;3.95;;
7359;SDS011;3720;48.274;7.796;2024-01-15T13:07:10;8.98;;;4.43;;
7359;SDS011;3720;48.274;7.796;2024-01-15T13:09:42;9.52;;;4.63;;
7359;SDS011;3720;48.274;7.796;2024-01-15T13:12:14;9.90;;;4.50;;
7359;SDS011;3720;48.274;7.796;2024-01-15T13:14:47;8.43;;;4.47;;
7359;SDS011;3720;48.274;7.796;2024-01-15T13:17:19;10.32;;;4.90;;
7359;SDS011;3720;48.274;7.796;2024-01-15T13:19:51;13.00;;;4.80;;
7359;SDS011;3720;48.274;7.796;2024-01-15T13:22:24;9.32;;;4.85;;
7359;SDS011;3720;48.274;7.796;2024-01-15T13:27:33;11.27;;;4.93;;
7359;SDS011;3720;48.274;7.796;2024-01-15T13:30:07;11.80;;;5.40;;
7359;SDS011;3720;48.274;7.796;2024-01-15T13:32:40;11.38;;;5.10;;
7359;SDS011;3720;48.274;7.796;2024-01-15T13:35:12;11.45;;;5.38;;
7359;SDS011;3720;48.274;7.796;2024-01-15T13:37:46;10.13;;;5.10;;
7359;SDS011;3720;48.274;7.796;2024-01-15T13:40:17;11.55;;;5.55;;
7359;SDS011;3720;48.274;7.796;2024-01-15T13:42:50;13.45;;;5.70;;
7359;SDS011;3720;48.274;7.796;2024-01-15T13:45:22;10.88;;;5.47;;
7359;SDS011;3720;48.274;7.796;2024-01-15T13:47:54;11.73;;;5.50;;
7359;SDS011;3720;48.274;7.796;2024-01-15T13:50:26;10.68;;;5.22;;
7359;SDS011;3720;48.274;7.796;2024-01-15T13:53:00;13.40;;;5.60;;
7359;SDS011;3720;48.274;7.796;2024-01-15T13:55:32;13.02;;;5.63;;
7359;SDS011;3720;48.274;7.796;2024-01-15T13:58:03;14.50;;;5.75;;
7359;SDS011;3720;48.274;7.796;2024-01-15T14:00:35;11.15;;;5.45;;
7359;SDS011;3720;48.274;7.796;2024-01-15T14:03:07;11.20;;;5.97;;
7359;SDS011;3720;48.274;7.796;2024-01-15T14:05:39;14.68;;;6.32;;
7359;SDS011;3720;48.274;7.796;2024-01-15T14:08:12;11.63;;;5.97;;
7359;SDS011;3720;48.274;7.796;2024-01-15T14:10:44;11.88;;;5.57;;
7359;SDS011;3720;48.274;7.796;2024-01-15T14:13:16;11.50;;;5.57;;
7359;SDS011;3720;48.274;7.796;2024-01-15T14:15:48;11.35;;;5.38;;
7359;SDS011;3720;48.274;7.796;2024-01-15T14:18:20;12.65;;;5.95;;
7359;SDS011;3720;48.274;7.796;2024-01-15T14:20:52;12.70;;;6.00;;
7359;SDS011;3720;48.274;7.796;2024-01-15T14:23:25;11.98;;;5.47;;
7359;SDS011;3720;48.274;7.796;2024-01-15T14:25:57;13.80;;;5.53;;
7359;SDS011;3720;48.274;7.796;2024-01-15T14:28:29;9.45;;;5.45;;
7359;SDS011;3720;48.274;7.796;2024-01-15T14:31:01;12.98;;;5.22;;
7359;SDS011;3720;48.274;7.796;2024-01-15T14:33:35;10.73;;;5.30;;
7359;SDS011;3720;48.274;7.796;2024-01-15T14:36:07;9.55;;;5.32;;
7359;SDS011;3720;48.274;7.796;2024-01-15T14:38:42;11.35;;;5.38;;
7359;SDS011;3720;48.274;7.796;2024-01-15T14:41:13;11.60;;;5.60;;
7359;SDS011;3720;48.274;7.796;2024-01-15T14:43:46;9.57;;;5.20;;
7359;SDS011;3720;48.274;7.796;2024-01-15T14:46:18;11.30;;;5.22;;
7359;SDS011;3720;48.274;7.796;2024-01-15T14:48:51;10.35;;;5.35;;
7359;SDS011;3720;48.274;7.796;2024-01-15T14:51:22;9.68;;;4.80;;
7359;SDS011;3720;48.274;7.796;2024-01-15T14:53:56;10.27;;;4.88;;
7359;SDS011;3720;48.274;7.796;2024-01-15T14:56:28;10.35;;;5.20;;
7359;SDS011;3720;48.274;7.796;2024-01-15T14:59:01;9.55;;;5.40;;
7359;SDS011;3720;48.274;7.796;2024-01-15T15:01:33;11.18;;;5.00;;
7359;SDS011;3720;48.274;7.796;2024-01-15T15:04:05;11.35;;;5.60;;
7359;SDS011;3720;48.274;7.796;2024-01-15T15:06:38;17.95;;;5.38;;
7359;SDS011;3720;48.274;7.796;2024-01-15T15:09:11;10.40;;;5.10;;
7359;SDS011;3720;48.274;7.796;2024-01-15T15:11:43;9.88;;;4.90;;
7359;SDS011;3720;48.274;7.796;2024-01-15T15:14:15;10.82;;;5.22;;
7359;SDS011;3720;48.274;7.796;2024-01-15T15:16:47;12.35;;;5.35;;
7359;SDS011;3720;48.274;7.796;2024-01-15T15:19:19;10.13;;;4.70;;
7359;SDS011;3720;48.274;7.796;2024-01-15T15:21:51;9.35;;;5.15;;
7359;SDS011;3720;48.274;7.796;2024-01-15T15:24:24;9.88;;;5.20;;
7359;SDS011;3720;48.274;7.796;2024-01-15T15:26:56;9.10;;;5.15;;
7359;SDS011;3720;48.274;7.796;2024-01-15T15:29:27;10.10;;;5.20;;